createdAt,value
2022-10-08T00:00:27.971Z,11.16
2022-10-08T00:01:28.019Z,11.12
2022-10-08T00:02:27.945Z,11.13
2022-10-08T00:03:27.934Z,11.13
2022-10-08T00:04:27.999Z,11.19
2022-10-08T00:05:27.917Z,11.18
2022-10-08T00:06:27.906Z,11.09
2022-10-08T00:07:27.897Z,11.18
2022-10-08T00:08:27.889Z,11.09
2022-10-08T00:09:27.919Z,11.03
2022-10-08T00:10:27.867Z,11.03
2022-10-08T00:11:27.886Z,11.11
2022-10-08T00:12:27.838Z,11.09
2022-10-08T00:13:27.826Z,11.05
2022-10-08T00:14:27.820Z,11.04
2022-10-08T00:15:27.827Z,11.05
2022-10-08T00:16:27.877Z,11.11
2022-10-08T00:17:27.830Z,11.00
2022-10-08T00:18:27.774Z,11.00
2022-10-08T00:19:27.764Z,11.01
2022-10-08T00:20:27.754Z,11.00
2022-10-08T00:21:27.765Z,11.04
2022-10-08T00:22:27.732Z,11.03
2022-10-08T00:23:27.721Z,11.03
2022-10-08T00:24:27.708Z,11.00
2022-10-08T00:25:27.729Z,11.03
2022-10-08T00:26:27.711Z,11.03
2022-10-08T00:27:27.695Z,11.01
2022-10-08T00:28:27.777Z,11.04
2022-10-08T00:29:27.658Z,11.00
2022-10-08T00:30:27.650Z,10.97
2022-10-08T00:31:27.798Z,10.93
2022-10-08T00:32:27.631Z,10.98
2022-10-08T00:33:27.612Z,11.05
2022-10-08T00:34:27.601Z,10.98
2022-10-08T00:35:27.590Z,10.90
2022-10-08T00:36:27.577Z,10.97
2022-10-08T00:37:27.591Z,10.87
2022-10-08T00:38:27.559Z,10.95
2022-10-08T00:39:27.546Z,10.94
2022-10-08T00:40:27.532Z,10.83
2022-10-08T00:41:27.556Z,10.91
2022-10-08T00:42:27.532Z,10.85
2022-10-08T00:43:27.629Z,10.93
2022-10-08T00:44:27.494Z,10.85
2022-10-08T00:45:27.519Z,10.90
2022-10-08T00:46:27.499Z,10.86
2022-10-08T00:47:27.482Z,10.83
2022-10-08T00:48:27.448Z,10.91
2022-10-08T00:49:27.443Z,10.82
2022-10-08T00:50:27.432Z,10.86
2022-10-08T00:51:27.422Z,10.79
2022-10-08T00:52:27.435Z,10.79
2022-10-08T00:53:27.399Z,10.79
2022-10-08T00:54:27.382Z,10.85
2022-10-08T00:55:27.374Z,10.83
2022-10-08T00:56:27.359Z,10.76
2022-10-08T00:57:27.385Z,10.80
2022-10-08T00:58:27.341Z,10.78
2022-10-08T00:59:27.372Z,10.76
2022-10-08T01:00:27.321Z,10.68
2022-10-08T01:01:27.357Z,10.70
2022-10-08T01:02:27.348Z,10.79
2022-10-08T01:03:27.288Z,10.75
2022-10-08T01:04:27.297Z,10.70
2022-10-08T01:05:27.270Z,10.72
2022-10-08T01:06:27.256Z,10.76
2022-10-08T01:07:27.248Z,10.75
2022-10-08T01:08:27.257Z,10.76
2022-10-08T01:09:27.220Z,10.70
2022-10-08T01:10:27.215Z,10.61
2022-10-08T01:11:27.201Z,10.72
2022-10-08T01:12:27.194Z,10.67
2022-10-08T01:13:27.183Z,10.70
2022-10-08T01:14:27.193Z,10.64
2022-10-08T01:15:27.177Z,10.70
2022-10-08T01:16:27.227Z,10.68
2022-10-08T01:17:27.136Z,10.67
2022-10-08T01:18:27.128Z,10.67
2022-10-08T01:19:27.140Z,10.57
2022-10-08T01:20:27.102Z,10.64
2022-10-08T01:21:27.096Z,10.67
2022-10-08T01:22:27.082Z,10.64
2022-10-08T01:23:27.083Z,10.64
2022-10-08T01:24:27.089Z,10.57
2022-10-08T01:25:27.050Z,10.54
2022-10-08T01:26:27.035Z,10.62
2022-10-08T01:27:27.030Z,10.62
2022-10-08T01:28:27.091Z,10.55
2022-10-08T01:29:27.032Z,10.55
2022-10-08T01:30:26.994Z,10.55
2022-10-08T01:31:27.082Z,10.49
2022-10-08T01:32:26.973Z,10.55
2022-10-08T01:33:26.961Z,10.52
2022-10-08T01:34:26.951Z,10.61
2022-10-08T01:35:26.966Z,10.58
2022-10-08T01:36:26.930Z,10.52
2022-10-08T01:37:26.919Z,10.45
2022-10-08T01:38:26.913Z,10.49
2022-10-08T01:39:26.898Z,10.48
2022-10-08T01:40:26.903Z,10.49
2022-10-08T01:41:26.871Z,10.48
2022-10-08T01:42:26.863Z,10.54
2022-10-08T01:43:26.864Z,10.52
2022-10-08T01:44:26.839Z,10.49
2022-10-08T01:45:26.924Z,10.52
2022-10-08T01:46:26.817Z,10.49
2022-10-08T01:47:26.828Z,10.42
2022-10-08T01:48:26.821Z,10.46
2022-10-08T01:49:26.791Z,10.52
2022-10-08T01:50:26.777Z,10.39
2022-10-08T01:51:26.765Z,10.48
2022-10-08T01:52:26.755Z,10.49
2022-10-08T01:53:26.761Z,10.41
2022-10-08T01:54:26.730Z,10.45
2022-10-08T01:55:26.740Z,10.39
2022-10-08T01:56:26.709Z,10.46
2022-10-08T01:57:26.702Z,10.46
2022-10-08T01:58:26.685Z,10.46
2022-10-08T01:59:26.683Z,10.42
2022-10-08T02:00:26.688Z,10.43
2022-10-08T02:01:26.729Z,10.43
2022-10-08T02:02:26.727Z,10.42
2022-10-08T02:03:26.672Z,10.41
2022-10-08T02:04:26.619Z,10.43
2022-10-08T02:05:26.610Z,10.46
2022-10-08T02:06:26.600Z,10.42
2022-10-08T02:07:26.589Z,10.45
2022-10-08T02:08:26.603Z,10.43
2022-10-08T02:09:26.590Z,10.39
2022-10-08T02:10:26.563Z,10.42
2022-10-08T02:11:26.552Z,10.43
2022-10-08T02:12:26.533Z,10.43
2022-10-08T02:13:26.529Z,10.45
2022-10-08T02:14:26.536Z,10.42
2022-10-08T02:15:26.533Z,10.36
2022-10-08T02:16:26.593Z,10.48
2022-10-08T02:17:26.486Z,10.45
2022-10-08T02:18:26.479Z,10.39
2022-10-08T02:19:26.508Z,10.46
2022-10-08T02:20:26.467Z,10.38
2022-10-08T02:21:26.442Z,10.48
2022-10-08T02:22:26.432Z,10.45
2022-10-08T02:23:26.417Z,10.31
2022-10-08T02:24:26.433Z,10.38
2022-10-08T02:25:26.418Z,10.42
2022-10-08T02:26:26.385Z,10.30
2022-10-08T02:27:26.372Z,10.31
2022-10-08T02:28:26.442Z,10.35
2022-10-08T02:29:26.353Z,10.31
2022-10-08T02:30:26.361Z,10.30
2022-10-08T02:31:26.400Z,10.41
2022-10-08T02:32:26.316Z,10.41
2022-10-08T02:33:26.305Z,10.28
2022-10-08T02:34:26.293Z,10.35
2022-10-08T02:35:26.329Z,10.35
2022-10-08T02:36:26.278Z,10.31
2022-10-08T02:37:26.261Z,10.21
2022-10-08T02:38:26.255Z,10.31
2022-10-08T02:39:26.240Z,10.26
2022-10-08T02:40:26.259Z,10.31
2022-10-08T02:41:26.228Z,10.28
2022-10-08T02:42:26.206Z,10.28
2022-10-08T02:43:26.203Z,10.30
2022-10-08T02:44:26.186Z,10.30
2022-10-08T02:45:26.191Z,10.35
2022-10-08T02:46:26.187Z,10.27
2022-10-08T02:47:26.152Z,10.30
2022-10-08T02:48:26.145Z,10.28
2022-10-08T02:49:26.133Z,10.27
2022-10-08T02:50:26.144Z,10.34
2022-10-08T02:51:26.132Z,10.26
2022-10-08T02:52:26.100Z,10.30
2022-10-08T02:53:26.096Z,10.28
2022-10-08T02:54:26.076Z,10.36
2022-10-08T02:55:26.090Z,10.30
2022-10-08T02:56:26.052Z,10.28
2022-10-08T02:57:26.045Z,10.28
2022-10-08T02:58:26.057Z,10.31
2022-10-08T02:59:26.020Z,10.28
2022-10-08T03:00:26.045Z,10.38
2022-10-08T03:01:26.048Z,10.30
2022-10-08T03:02:26.030Z,10.27
2022-10-08T03:03:25.987Z,10.31
2022-10-08T03:04:25.970Z,10.28
2022-10-08T03:05:25.958Z,10.27
2022-10-08T03:06:25.963Z,10.27
2022-10-08T03:07:25.955Z,10.31
2022-10-08T03:08:25.943Z,10.24
2022-10-08T03:09:25.918Z,10.26
2022-10-08T03:10:25.901Z,10.27
2022-10-08T03:11:25.889Z,10.23
2022-10-08T03:12:25.883Z,10.23
2022-10-08T03:13:25.893Z,10.27
2022-10-08T03:14:25.880Z,10.28
2022-10-08T03:15:25.850Z,10.24
2022-10-08T03:16:25.905Z,10.24
2022-10-08T03:17:25.825Z,10.26
2022-10-08T03:18:25.837Z,10.26
2022-10-08T03:19:25.813Z,10.30
2022-10-08T03:20:25.801Z,10.23
2022-10-08T03:21:25.803Z,10.26
2022-10-08T03:22:25.779Z,10.24
2022-10-08T03:23:25.829Z,10.21
2022-10-08T03:24:25.779Z,10.27
2022-10-08T03:25:25.739Z,10.23
2022-10-08T03:26:25.731Z,10.24
2022-10-08T03:27:25.715Z,10.30
2022-10-08T03:28:25.731Z,10.18
2022-10-08T03:29:25.712Z,10.28
2022-10-08T03:30:25.711Z,10.23
2022-10-08T03:31:25.671Z,10.24
2022-10-08T03:32:25.668Z,10.23
2022-10-08T03:33:25.654Z,10.17
2022-10-08T03:34:25.672Z,10.17
2022-10-08T03:35:25.629Z,10.26
2022-10-08T03:36:25.622Z,10.21
2022-10-08T03:37:25.607Z,10.21
2022-10-08T03:38:25.599Z,10.17
2022-10-08T03:39:25.641Z,10.14
2022-10-08T03:40:25.574Z,10.17
2022-10-08T03:41:25.566Z,10.18
2022-10-08T03:42:25.553Z,10.23
2022-10-08T03:43:25.542Z,10.20
2022-10-08T03:44:25.535Z,10.14
2022-10-08T03:45:25.546Z,10.14
2022-10-08T03:46:25.561Z,10.14
2022-10-08T03:47:25.521Z,10.14
2022-10-08T03:48:25.495Z,10.09
2022-10-08T03:49:25.479Z,10.14
2022-10-08T03:50:25.489Z,10.18
2022-10-08T03:51:25.457Z,10.09
2022-10-08T03:52:25.448Z,10.18
2022-10-08T03:53:25.438Z,10.17
2022-10-08T03:54:25.426Z,10.16
2022-10-08T03:55:25.518Z,10.17
2022-10-08T03:56:25.401Z,10.14
2022-10-08T03:57:25.392Z,10.17
2022-10-08T03:58:25.415Z,10.12
2022-10-08T03:59:25.367Z,10.12
2022-10-08T04:00:25.357Z,10.12
2022-10-08T04:01:25.390Z,10.03
2022-10-08T04:02:25.378Z,10.08
2022-10-08T04:03:25.361Z,10.14
2022-10-08T04:04:25.832Z,10.17
2022-10-08T04:05:25.305Z,10.08
2022-10-08T04:06:25.294Z,10.10
2022-10-08T04:07:25.282Z,10.14
2022-10-08T04:08:25.269Z,10.10
2022-10-08T04:09:25.280Z,10.10
2022-10-08T04:10:25.247Z,10.12
2022-10-08T04:11:25.262Z,10.12
2022-10-08T04:12:25.229Z,10.09
2022-10-08T04:13:25.228Z,10.12
2022-10-08T04:14:25.223Z,10.16
2022-10-08T04:15:25.355Z,10.14
2022-10-08T04:16:25.187Z,10.17
2022-10-08T04:17:25.172Z,10.16
2022-10-08T04:18:25.160Z,10.12
2022-10-08T04:19:25.179Z,10.09
2022-10-08T04:20:25.140Z,10.16
2022-10-08T04:21:25.123Z,10.12
2022-10-08T04:22:25.118Z,10.12
2022-10-08T04:23:25.108Z,10.12
2022-10-08T04:24:25.116Z,10.12
2022-10-08T04:25:25.085Z,10.08
2022-10-08T04:26:25.077Z,10.08
2022-10-08T04:27:25.083Z,10.16
2022-10-08T04:28:25.089Z,10.14
2022-10-08T04:29:25.071Z,10.17
2022-10-08T04:30:25.028Z,10.12
2022-10-08T04:31:25.094Z,10.08
2022-10-08T04:32:25.011Z,10.14
2022-10-08T04:33:24.997Z,10.06
2022-10-08T04:34:24.990Z,10.16
2022-10-08T04:35:24.988Z,10.16
2022-10-08T04:36:24.980Z,10.18
2022-10-08T04:37:24.955Z,10.14
2022-10-08T04:38:24.950Z,10.14
2022-10-08T04:39:24.931Z,10.21
2022-10-08T04:40:24.923Z,10.18
2022-10-08T04:41:24.913Z,10.09
2022-10-08T04:42:24.926Z,10.17
2022-10-08T04:43:24.905Z,10.16
2022-10-08T04:44:24.877Z,10.17
2022-10-08T04:45:24.869Z,10.18
2022-10-08T04:46:25.031Z,10.16
2022-10-08T04:47:24.869Z,10.20
2022-10-08T04:48:24.838Z,10.20
2022-10-08T04:49:24.825Z,10.10
2022-10-08T04:50:24.813Z,10.09
2022-10-08T04:51:24.801Z,10.14
2022-10-08T04:52:24.838Z,10.17
2022-10-08T04:53:24.782Z,10.16
2022-10-08T04:54:24.767Z,10.16
2022-10-08T04:55:24.786Z,10.20
2022-10-08T04:56:24.750Z,10.12
2022-10-08T04:57:24.736Z,10.14
2022-10-08T04:58:24.726Z,10.18
2022-10-08T04:59:24.732Z,10.18
2022-10-08T05:00:24.724Z,10.14
2022-10-08T05:01:24.769Z,10.12
2022-10-08T05:02:24.775Z,10.12
2022-10-08T05:03:24.687Z,10.09
2022-10-08T05:04:24.664Z,10.12
2022-10-08T05:05:24.670Z,10.17
2022-10-08T05:06:24.641Z,10.21
2022-10-08T05:07:24.628Z,10.03
2022-10-08T05:08:24.618Z,10.14
2022-10-08T05:09:24.605Z,10.10
2022-10-08T05:10:24.619Z,10.18
2022-10-08T05:11:24.585Z,10.09
2022-10-08T05:12:24.576Z,10.12
2022-10-08T05:13:24.584Z,10.12
2022-10-08T05:14:24.552Z,10.12
2022-10-08T05:15:24.569Z,10.10
2022-10-08T05:16:24.748Z,10.10
2022-10-08T05:17:24.523Z,10.03
2022-10-08T05:18:24.505Z,10.10
2022-10-08T05:19:24.497Z,10.08
2022-10-08T05:20:24.483Z,10.09
2022-10-08T05:21:24.533Z,10.09
2022-10-08T05:22:24.473Z,10.08
2022-10-08T05:23:24.453Z,10.08
2022-10-08T05:24:24.445Z,10.16
2022-10-08T05:25:24.433Z,10.09
2022-10-08T05:26:41.468Z,10.14
2022-10-08T05:27:25.430Z,10.01
2022-10-08T05:28:24.516Z,10.03
2022-10-08T05:29:24.419Z,10.08
2022-10-08T05:30:24.377Z,10.05
2022-10-08T05:31:24.446Z,10.03
2022-10-08T05:32:24.363Z,10.09
2022-10-08T05:33:24.342Z,9.96
2022-10-08T05:34:24.358Z,10.03
2022-10-08T05:35:24.323Z,10.02
2022-10-08T05:36:24.311Z,10.02
2022-10-08T05:37:24.304Z,10.08
2022-10-08T05:38:24.288Z,10.05
2022-10-08T05:39:24.301Z,10.06
2022-10-08T05:40:24.283Z,9.99
2022-10-08T05:41:24.255Z,9.99
2022-10-08T05:42:24.246Z,9.98
2022-10-08T05:43:24.236Z,9.93
2022-10-08T05:44:24.255Z,10.02
2022-10-08T05:45:24.214Z,10.02
2022-10-08T05:46:24.233Z,9.91
2022-10-08T05:47:24.210Z,10.05
2022-10-08T05:48:24.183Z,10.01
2022-10-08T05:49:24.193Z,10.06
2022-10-08T05:50:24.164Z,10.02
2022-10-08T05:51:24.182Z,9.98
2022-10-08T05:52:24.161Z,10.06
2022-10-08T05:53:24.124Z,9.98
2022-10-08T05:54:24.133Z,9.99
2022-10-08T05:55:24.106Z,9.99
2022-10-08T05:56:24.095Z,9.99
2022-10-08T05:57:24.109Z,9.96
2022-10-08T05:58:28.468Z,9.93
2022-10-08T05:59:25.068Z,9.85
2022-10-08T06:00:24.051Z,9.84
2022-10-08T06:01:24.041Z,9.94
2022-10-08T06:02:24.140Z,9.85
2022-10-08T06:03:24.038Z,9.85
2022-10-08T06:04:24.058Z,9.85
2022-10-08T06:05:24.028Z,10.01
2022-10-08T06:06:23.987Z,9.99
2022-10-08T06:07:24.001Z,9.91
2022-10-08T06:08:23.966Z,9.87
2022-10-08T06:09:23.958Z,9.87
2022-10-08T06:10:23.943Z,9.83
2022-10-08T06:11:23.932Z,9.84
2022-10-08T06:12:23.938Z,9.85
2022-10-08T06:13:23.910Z,9.87
2022-10-08T06:14:23.902Z,9.90
2022-10-08T06:15:23.918Z,9.90
2022-10-08T06:16:23.935Z,9.78
2022-10-08T06:17:23.864Z,9.93
2022-10-08T06:18:23.858Z,9.90
2022-10-08T06:19:23.864Z,9.83
2022-10-08T06:20:25.707Z,9.84
2022-10-08T06:21:23.825Z,9.84
2022-10-08T06:22:23.815Z,9.81
2022-10-08T06:23:23.818Z,9.84
2022-10-08T06:24:23.795Z,9.84
2022-10-08T06:25:23.797Z,9.90
2022-10-08T06:26:23.784Z,9.81
2022-10-08T06:27:23.761Z,9.81
2022-10-08T06:28:23.832Z,9.85
2022-10-08T06:29:23.816Z,9.83
2022-10-08T06:30:23.727Z,9.84
2022-10-08T06:31:23.837Z,9.90
2022-10-08T06:32:23.705Z,9.87
2022-10-08T06:33:23.721Z,9.87
2022-10-08T06:34:23.687Z,9.85
2022-10-08T06:35:23.708Z,9.90
2022-10-08T06:36:23.679Z,9.84
2022-10-08T06:37:23.655Z,9.88
2022-10-08T06:38:23.639Z,9.85
2022-10-08T06:39:23.630Z,9.87
2022-10-08T06:40:23.642Z,9.85
2022-10-08T06:41:23.612Z,9.87
2022-10-08T06:42:23.623Z,9.93
2022-10-08T06:43:23.596Z,9.93
2022-10-08T06:44:23.577Z,9.84
2022-10-08T06:45:23.592Z,9.81
2022-10-08T06:46:23.616Z,9.88
2022-10-08T06:47:23.565Z,9.88
2022-10-08T06:48:23.533Z,9.85
2022-10-08T06:49:23.525Z,9.83
2022-10-08T06:50:23.512Z,9.83
2022-10-08T06:51:23.527Z,9.87
2022-10-08T06:52:23.517Z,9.85
2022-10-08T06:53:23.482Z,9.90
2022-10-08T06:54:23.466Z,9.87
2022-10-08T06:55:23.457Z,9.87
2022-10-08T06:56:23.473Z,9.87
2022-10-08T06:57:23.459Z,9.91
2022-10-08T06:58:23.425Z,9.90
2022-10-08T06:59:23.414Z,9.85
2022-10-08T07:00:23.404Z,9.94
2022-10-08T07:01:23.466Z,9.88
2022-10-08T07:02:23.458Z,9.93
2022-10-08T07:03:23.371Z,9.81
2022-10-08T07:04:23.363Z,9.98
2022-10-08T07:05:23.351Z,9.93
2022-10-08T07:06:23.365Z,9.93
2022-10-08T07:07:23.367Z,9.94
2022-10-08T07:08:23.323Z,10.01
2022-10-08T07:09:23.315Z,9.94
2022-10-08T07:10:23.300Z,9.98
2022-10-08T07:11:23.316Z,10.05
2022-10-08T07:12:23.284Z,10.03
2022-10-08T07:13:23.259Z,10.06
2022-10-08T07:14:23.259Z,10.01
2022-10-08T07:15:23.239Z,10.05
2022-10-08T07:16:23.407Z,10.05
2022-10-08T07:17:23.218Z,10.05
2022-10-08T07:18:23.218Z,9.99
2022-10-08T07:19:23.201Z,10.10
2022-10-08T07:20:23.195Z,10.08
2022-10-08T07:21:23.213Z,10.03
2022-10-08T07:22:23.168Z,10.12
2022-10-08T07:23:23.198Z,10.12
2022-10-08T07:24:23.146Z,10.09
2022-10-08T07:25:23.134Z,10.08
2022-10-08T07:26:23.120Z,10.06
2022-10-08T07:27:23.107Z,10.12
2022-10-08T07:28:23.222Z,10.10
2022-10-08T07:29:23.090Z,10.16
2022-10-08T07:30:23.078Z,10.18
2022-10-08T07:31:23.111Z,10.23
2022-10-08T07:32:23.061Z,10.20
2022-10-08T07:33:23.068Z,10.23
2022-10-08T07:34:23.036Z,10.20
2022-10-08T07:35:23.020Z,10.30
2022-10-08T07:36:23.012Z,10.27
2022-10-08T07:37:23.022Z,10.28
2022-10-08T07:38:23.015Z,10.26
2022-10-08T07:39:22.999Z,10.30
2022-10-08T07:40:22.971Z,10.31
2022-10-08T07:41:22.965Z,10.34
2022-10-08T07:42:22.947Z,10.38
2022-10-08T07:43:22.965Z,10.36
2022-10-08T07:44:22.924Z,10.41
2022-10-08T07:45:22.951Z,10.38
2022-10-08T07:46:22.899Z,10.39
2022-10-08T07:47:22.934Z,10.45
2022-10-08T07:48:22.907Z,10.48
2022-10-08T07:49:22.875Z,10.54
2022-10-08T07:50:22.864Z,10.57
2022-10-08T07:51:22.850Z,10.55
2022-10-08T07:52:22.839Z,10.55
2022-10-08T07:53:22.857Z,10.61
2022-10-08T07:54:22.812Z,10.64
2022-10-08T07:55:22.823Z,10.64
2022-10-08T07:56:22.794Z,10.72
2022-10-08T07:57:22.783Z,10.76
2022-10-08T07:58:22.807Z,10.73
2022-10-08T07:59:22.761Z,10.73
2022-10-08T08:00:26.159Z,10.75
2022-10-08T08:01:22.810Z,10.79
2022-10-08T08:02:22.782Z,10.83
2022-10-08T08:03:22.720Z,10.90
2022-10-08T08:04:22.738Z,10.82
2022-10-08T08:05:22.696Z,10.90
2022-10-08T08:06:22.683Z,10.97
2022-10-08T08:07:22.683Z,10.97
2022-10-08T08:08:22.665Z,10.98
2022-10-08T08:09:22.681Z,11.05
2022-10-08T08:10:22.639Z,11.11
2022-10-08T08:11:22.788Z,10.97
2022-10-08T08:12:22.624Z,10.98
2022-10-08T08:13:22.624Z,11.04
2022-10-08T08:14:22.636Z,11.01
2022-10-08T08:15:22.589Z,11.09
2022-10-08T08:16:22.676Z,11.19
2022-10-08T08:17:22.586Z,11.18
2022-10-08T08:18:22.555Z,11.12
2022-10-08T08:19:22.569Z,11.23
2022-10-08T08:20:22.536Z,11.27
2022-10-08T08:21:22.538Z,11.28
2022-10-08T08:22:22.536Z,11.37
2022-10-08T08:23:22.509Z,11.27
2022-10-08T08:24:22.514Z,11.37
2022-10-08T08:25:22.496Z,11.38
2022-10-08T08:26:22.471Z,11.40
2022-10-08T08:27:22.479Z,11.51
2022-10-08T08:28:22.566Z,11.52
2022-10-08T08:29:22.465Z,11.51
2022-10-08T08:30:22.431Z,11.54
2022-10-08T08:31:22.485Z,11.58
2022-10-08T08:32:27.547Z,11.54
2022-10-08T08:33:23.407Z,11.64
2022-10-08T08:34:22.410Z,11.64
2022-10-08T08:35:22.375Z,11.64
2022-10-08T08:36:22.397Z,11.66
2022-10-08T08:37:22.353Z,11.62
2022-10-08T08:38:22.340Z,11.79
2022-10-08T08:39:22.331Z,11.77
2022-10-08T08:40:22.321Z,11.73
2022-10-08T08:41:22.310Z,11.71
2022-10-08T08:42:22.316Z,11.84
2022-10-08T08:43:22.306Z,11.77
2022-10-08T08:44:22.299Z,11.87
2022-10-08T08:45:44.629Z,11.85
2022-10-08T08:46:23.301Z,11.77
2022-10-08T08:47:22.247Z,11.82
2022-10-08T08:48:22.231Z,11.91
2022-10-08T08:49:22.254Z,11.93
2022-10-08T08:50:22.216Z,11.97
2022-10-08T08:51:22.198Z,11.89
2022-10-08T08:52:22.187Z,11.97
2022-10-08T08:53:22.188Z,12.03
2022-10-08T08:54:22.195Z,12.05
2022-10-08T08:55:22.155Z,12.00
2022-10-08T08:56:22.153Z,11.99
2022-10-08T08:57:22.140Z,11.99
2022-10-08T08:58:22.125Z,11.99
2022-10-08T08:59:22.155Z,12.17
2022-10-08T09:00:22.101Z,12.11
2022-10-08T09:01:22.184Z,12.11
2022-10-08T09:02:22.102Z,12.17
2022-10-08T09:03:22.069Z,12.17
2022-10-08T09:04:22.060Z,12.28
2022-10-08T09:05:22.178Z,12.28
2022-10-08T09:06:22.037Z,12.26
2022-10-08T09:07:22.023Z,12.30
2022-10-08T09:08:22.023Z,12.36
2022-10-08T09:09:22.006Z,12.32
2022-10-08T09:10:22.021Z,12.33
2022-10-08T09:11:22.014Z,12.33
2022-10-08T09:12:21.972Z,12.47
2022-10-08T09:13:21.957Z,12.50
2022-10-08T09:14:21.947Z,12.44
2022-10-08T09:15:21.978Z,12.44
2022-10-08T09:16:21.948Z,12.54
2022-10-08T09:17:21.938Z,12.50
2022-10-08T09:18:21.904Z,12.54
2022-10-08T09:19:21.892Z,12.54
2022-10-08T09:20:21.956Z,12.58
2022-10-08T09:21:21.876Z,12.62
2022-10-08T09:22:21.864Z,12.61
2022-10-08T09:23:21.847Z,12.61
2022-10-08T09:24:21.835Z,12.71
2022-10-08T09:25:21.843Z,12.72
2022-10-08T09:26:21.819Z,12.68
2022-10-08T09:27:21.839Z,12.76
2022-10-08T09:28:21.840Z,12.81
2022-10-08T09:29:21.782Z,12.84
2022-10-08T09:30:21.953Z,12.77
2022-10-08T09:31:21.898Z,12.95
2022-10-08T09:32:21.765Z,12.98
2022-10-08T09:33:21.765Z,12.98
2022-10-08T09:34:21.731Z,12.95
2022-10-08T09:35:21.738Z,12.95
2022-10-08T09:36:21.706Z,13.02
2022-10-08T09:37:21.700Z,13.06
2022-10-08T09:38:21.709Z,13.13
2022-10-08T09:39:21.675Z,13.11
2022-10-08T09:40:21.815Z,13.20
2022-10-08T09:41:21.655Z,13.27
2022-10-08T09:42:21.646Z,13.16
2022-10-08T09:43:21.657Z,13.29
2022-10-08T09:44:21.649Z,13.30
2022-10-08T09:45:22.377Z,13.38
2022-10-08T09:46:21.658Z,13.27
2022-10-08T09:47:21.607Z,13.43
2022-10-08T09:48:21.578Z,13.39
2022-10-08T09:49:21.611Z,13.55
2022-10-08T09:50:21.560Z,13.51
2022-10-08T09:51:21.544Z,13.57
2022-10-08T09:52:21.566Z,13.61
2022-10-08T09:53:21.525Z,13.68
2022-10-08T09:54:21.513Z,13.75
2022-10-08T09:55:21.510Z,13.67
2022-10-08T09:56:21.490Z,13.73
2022-10-08T09:57:21.501Z,13.72
2022-10-08T09:58:21.467Z,13.78
2022-10-08T09:59:21.459Z,13.85
2022-10-08T10:00:21.449Z,13.88
2022-10-08T10:01:21.554Z,13.93
2022-10-08T10:02:21.447Z,13.83
2022-10-08T10:03:21.468Z,14.03
2022-10-08T10:04:21.406Z,13.98
2022-10-08T10:05:21.391Z,13.97
2022-10-08T10:06:21.408Z,14.05
2022-10-08T10:07:21.374Z,14.05
2022-10-08T10:08:21.381Z,14.09
2022-10-08T10:09:21.352Z,14.04
2022-10-08T10:10:21.335Z,14.16
2022-10-08T10:11:21.327Z,14.26
2022-10-08T10:12:21.322Z,14.22
2022-10-08T10:13:21.327Z,14.23
2022-10-08T10:14:21.349Z,14.31
2022-10-08T10:15:21.339Z,14.27
2022-10-08T10:16:21.315Z,14.40
2022-10-08T10:17:21.288Z,14.37
2022-10-08T10:18:21.278Z,14.40
2022-10-08T10:19:21.260Z,14.45
2022-10-08T10:20:21.251Z,14.52
2022-10-08T10:21:21.222Z,14.53
2022-10-08T10:22:21.206Z,14.49
2022-10-08T10:23:21.219Z,14.56
2022-10-08T10:24:21.191Z,14.58
2022-10-08T10:25:21.175Z,14.64
2022-10-08T10:26:21.174Z,14.61
2022-10-08T10:27:21.191Z,14.73
2022-10-08T10:28:21.180Z,14.71
2022-10-08T10:29:21.141Z,14.77
2022-10-08T10:30:21.125Z,14.85
2022-10-08T10:31:21.191Z,14.82
2022-10-08T10:32:21.818Z,14.87
2022-10-08T10:33:21.115Z,14.95
2022-10-08T10:34:21.080Z,14.92
2022-10-08T10:35:21.095Z,14.90
2022-10-08T10:36:21.060Z,15.03
2022-10-08T10:37:21.051Z,15.03
2022-10-08T10:38:21.058Z,15.07
2022-10-08T10:39:21.026Z,15.08
2022-10-08T10:40:21.017Z,15.05
2022-10-08T10:41:21.003Z,15.10
2022-10-08T10:42:20.999Z,15.20
2022-10-08T10:43:21.013Z,15.14
2022-10-08T10:44:20.970Z,15.12
2022-10-08T10:45:20.962Z,15.15
2022-10-08T10:46:20.998Z,15.20
2022-10-08T10:47:20.937Z,15.26
2022-10-08T10:48:20.955Z,15.25
2022-10-08T10:49:20.917Z,15.33
2022-10-08T10:50:20.905Z,15.33
2022-10-08T10:51:20.918Z,15.35
2022-10-08T10:52:20.885Z,15.36
2022-10-08T10:53:20.899Z,15.45
2022-10-08T10:54:20.864Z,15.45
2022-10-08T10:55:20.858Z,15.41
2022-10-08T10:56:20.867Z,15.48
2022-10-08T10:57:20.833Z,15.44
2022-10-08T10:58:20.820Z,15.51
2022-10-08T10:59:20.830Z,15.50
2022-10-08T11:00:20.898Z,15.44
2022-10-08T11:01:20.837Z,15.54
2022-10-08T11:02:20.830Z,15.48
2022-10-08T11:03:20.773Z,15.59
2022-10-08T11:04:20.763Z,15.58
2022-10-08T11:05:20.749Z,15.59
2022-10-08T11:06:20.731Z,15.62
2022-10-08T11:07:20.840Z,15.60
2022-10-08T11:08:20.710Z,15.60
2022-10-08T11:09:20.706Z,15.70
2022-10-08T11:10:20.686Z,15.69
2022-10-08T11:11:20.682Z,15.70
2022-10-08T11:12:20.696Z,15.73
2022-10-08T11:13:20.661Z,15.80
2022-10-08T11:14:20.647Z,15.70
2022-10-08T11:15:20.637Z,15.76
2022-10-08T11:16:20.690Z,15.77
2022-10-08T11:17:22.191Z,15.73
2022-10-08T11:18:20.602Z,15.76
2022-10-08T11:19:20.597Z,15.83
2022-10-08T11:20:20.586Z,15.80
2022-10-08T11:21:20.572Z,15.78
2022-10-08T11:22:20.565Z,15.81
2022-10-08T11:23:20.592Z,15.80
2022-10-08T11:24:20.538Z,15.87
2022-10-08T11:25:20.552Z,15.81
2022-10-08T11:26:23.158Z,15.81
2022-10-08T11:27:20.511Z,15.87
2022-10-08T11:28:20.594Z,15.90
2022-10-08T11:29:20.484Z,15.85
2022-10-08T11:30:20.493Z,15.90
2022-10-08T11:31:20.525Z,15.84
2022-10-08T11:32:20.481Z,15.88
2022-10-08T11:33:20.473Z,15.87
2022-10-08T11:34:20.431Z,15.83
2022-10-08T11:35:20.417Z,15.95
2022-10-08T11:36:20.407Z,15.91
2022-10-08T11:37:20.399Z,16.00
2022-10-08T11:38:20.392Z,16.00
2022-10-08T11:39:20.419Z,15.93
2022-10-08T11:40:20.362Z,15.96
2022-10-08T11:41:20.349Z,15.98
2022-10-08T11:42:20.339Z,16.02
2022-10-08T11:43:20.348Z,16.08
2022-10-08T11:44:20.322Z,16.13
2022-10-08T11:45:20.303Z,16.05
2022-10-08T11:46:20.390Z,16.02
2022-10-08T11:47:20.283Z,16.00
2022-10-08T11:48:20.295Z,16.08
2022-10-08T11:49:20.258Z,16.06
2022-10-08T11:50:20.250Z,16.02
2022-10-08T11:51:20.273Z,16.05
2022-10-08T11:52:20.237Z,16.06
2022-10-08T11:53:20.217Z,16.09
2022-10-08T11:54:20.212Z,16.02
2022-10-08T11:55:20.213Z,16.08
2022-10-08T11:56:20.209Z,16.13
2022-10-08T11:57:20.174Z,16.17
2022-10-08T11:58:20.187Z,16.18
2022-10-08T11:59:20.156Z,16.10
2022-10-08T12:00:20.141Z,16.10
2022-10-08T12:01:20.154Z,16.16
2022-10-08T12:02:20.279Z,16.21
2022-10-08T12:03:20.298Z,16.18
2022-10-08T12:04:20.098Z,16.17
2022-10-08T12:05:20.090Z,16.24
2022-10-08T12:06:20.077Z,16.24
2022-10-08T12:07:20.070Z,16.34
2022-10-08T12:08:20.100Z,16.22
2022-10-08T12:09:20.089Z,16.26
2022-10-08T12:10:20.037Z,16.26
2022-10-08T12:11:20.045Z,16.28
2022-10-08T12:12:20.011Z,16.32
2022-10-08T12:13:19.998Z,16.29
2022-10-08T12:14:20.014Z,16.29
2022-10-08T12:15:19.985Z,16.28
2022-10-08T12:16:19.994Z,16.39
2022-10-08T12:17:19.953Z,16.40
2022-10-08T12:18:23.731Z,16.43
2022-10-08T12:19:20.960Z,16.37
2022-10-08T12:20:19.925Z,16.42
2022-10-08T12:21:19.913Z,16.44
2022-10-08T12:22:19.903Z,16.43
2022-10-08T12:23:19.887Z,16.51
2022-10-08T12:24:19.881Z,16.59
2022-10-08T12:25:19.894Z,16.42
2022-10-08T12:26:19.855Z,16.59
2022-10-08T12:27:19.868Z,16.57
2022-10-08T12:28:19.912Z,16.61
2022-10-08T12:29:19.827Z,16.57
2022-10-08T12:30:19.837Z,16.58
2022-10-08T12:31:19.850Z,16.67
2022-10-08T12:32:19.787Z,16.69
2022-10-08T12:33:19.783Z,16.57
2022-10-08T12:34:19.777Z,16.61
2022-10-08T12:35:19.790Z,16.64
2022-10-08T12:36:19.748Z,16.69
2022-10-08T12:37:19.737Z,16.65
2022-10-08T12:38:19.724Z,16.74
2022-10-08T12:39:19.712Z,16.73
2022-10-08T12:40:19.731Z,16.73
2022-10-08T12:41:19.719Z,16.70
2022-10-08T12:42:19.688Z,16.76
2022-10-08T12:43:19.691Z,16.74
2022-10-08T12:44:19.663Z,16.83
2022-10-08T12:45:19.654Z,16.84
2022-10-08T12:46:19.744Z,16.91
2022-10-08T12:47:19.631Z,16.88
2022-10-08T12:48:19.645Z,16.92
2022-10-08T12:49:19.606Z,16.94
2022-10-08T12:50:19.593Z,16.99
2022-10-08T12:51:19.581Z,17.02
2022-10-08T12:52:19.586Z,17.02
2022-10-08T12:53:19.586Z,17.07
2022-10-08T12:54:19.555Z,17.09
2022-10-08T12:55:19.540Z,17.17